Hovedside
METAR-TAF:

METAR-TAF

Lufthavner :

Amman, Jordan

breddegrad: 31-59N, lengdegrad: 035-59E, høyde over havet: 767 m

Gjeldene værobservasjon

Denne rapporten ble laget for 30 minutter siden, klokken 17:00 UTC
Vind 5 kt fra Nordvest
Temperatur 21°C
Luftfuktighet 78%
Trykk 1015 hPa
Sikt: 4000 m
mye støv

METAR: OJAM 171700Z 32005KT 4000 DU NSC 21/17 Q1015 NOSIG

Tid: 20:30 (17:30 UTC)

Varsel

Denne rapporten ble laget for 7 timer og 20 minutter siden, klokken 10:10 UTC
Varsel gyldig fra 17. klokken 12 UTC til 18. klokken 18 UTC
Vind 10 kt fra Nordvest
Sikt: 5000 m
Få skyer i en høyde av 3500 ft
Spredte skyer i en høyde av 12000 ft
dis
Midlertidig
fra 17. klokken 12 UTC til 17. klokken 20 UTC
Sikt: 4000 m
mye støv

TAF: OJAM 171010Z 1712/1818 32010KT 5000 HZ FEW035 SCT120 TEMPO 1712/1720 4000 DU

Værobservasjoner og værvarsel for over 4000 flyplasser (METAR- og TAF-rapporter).

Tilgjengelige stasjoner er representert av de røde og gule prikkene på kartet.

Hold musepekeren over prikken for å se navnet på stasjonen.

Klikk så for å se værobservasjoner og -varsler.

For å forandre kartet kan du klikke på den grønne knappen med svart kryss for å zoome inn, på den grønne knappen med strek for å zoome ut, eller på de grønne pilene for å se tilstøtende kart.


METAR-TAF: